createdAt,value
2024-04-12T00:01:53.616Z,85.13
2024-04-12T00:11:55.939Z,85.32
2024-04-12T00:21:58.356Z,85.41
2024-04-12T00:32:00.638Z,86.47
2024-04-12T00:42:02.788Z,87.02
2024-04-12T00:52:05.287Z,86.81
2024-04-12T01:02:07.500Z,87.37
2024-04-12T01:12:10.402Z,87.81
2024-04-12T01:22:31.147Z,87.81
2024-04-12T01:32:52.083Z,87.01
2024-04-12T01:43:13.210Z,87.49
2024-04-12T01:53:34.102Z,87.61
2024-04-12T02:03:54.774Z,87.37
2024-04-12T02:14:15.661Z,86.53
2024-04-12T02:24:36.320Z,86.57
2024-04-12T02:34:56.990Z,87.37
2024-04-12T02:45:17.699Z,88.02
2024-04-12T02:55:38.410Z,88.05
2024-04-12T03:05:59.184Z,87.07
2024-04-12T03:16:01.474Z,86.51
2024-04-12T03:26:03.698Z,86.30
2024-04-12T03:36:05.966Z,85.26
2024-04-12T03:46:08.384Z,79.34
2024-04-12T03:56:10.700Z,76.80
2024-04-12T04:06:13.036Z,77.26
2024-04-12T04:16:15.338Z,80.37
2024-04-12T04:26:17.505Z,75.70
2024-04-12T04:36:19.794Z,70.18
2024-04-12T04:46:22.093Z,66.67
2024-04-12T04:56:24.383Z,62.08
2024-04-12T05:06:26.558Z,58.93
2024-04-12T05:16:28.768Z,57.63
2024-04-12T05:26:32.658Z,51.78
2024-04-12T05:36:36.083Z,50.41
2024-04-12T05:46:38.216Z,46.26
2024-04-12T05:56:40.544Z,48.66
2024-04-12T06:06:43.225Z,46.20
2024-04-12T06:16:45.678Z,44.14
2024-04-12T06:26:47.966Z,46.66
2024-04-12T06:36:50.358Z,40.59
2024-04-12T06:46:52.510Z,39.21
2024-04-12T06:56:54.664Z,40.53
2024-04-12T07:06:56.998Z,41.07
2024-04-12T07:17:00.255Z,41.06
2024-04-12T07:27:06.268Z,38.56
2024-04-12T07:37:08.663Z,39.15
2024-04-12T07:47:11.702Z,37.85
2024-04-12T07:57:14.092Z,36.79
2024-04-12T08:07:16.270Z,37.97
2024-04-12T08:17:18.539Z,38.09
2024-04-12T08:27:20.843Z,37.79
2024-04-12T08:37:23.028Z,41.08
2024-04-12T08:47:25.353Z,41.29
2024-04-12T08:57:27.581Z,38.82
2024-04-12T09:07:29.746Z,48.01
2024-04-12T09:17:32.127Z,49.82
2024-04-12T09:27:34.516Z,49.80
2024-04-12T09:37:36.721Z,50.45
2024-04-12T09:47:39.042Z,46.82
2024-04-12T09:57:41.570Z,46.13
2024-04-12T10:18:01.470Z,45.31
2024-04-12T10:28:03.859Z,45.01
2024-04-12T10:38:06.043Z,43.89
2024-04-12T10:48:15.063Z,43.56
2024-04-12T10:58:17.447Z,42.34
2024-04-12T11:08:23.715Z,39.71
2024-04-12T11:18:29.943Z,40.35
2024-04-12T11:28:32.158Z,39.47
2024-04-12T11:38:34.422Z,38.81
2024-04-12T11:48:38.226Z,37.34
2024-04-12T11:58:41.403Z,36.38
2024-04-12T12:08:43.588Z,36.69
2024-04-12T12:18:46.832Z,36.66
2024-04-12T12:28:49.186Z,35.94
2024-04-12T12:38:51.595Z,35.01
2024-04-12T12:48:54.214Z,32.90
2024-04-12T12:59:01.650Z,33.50
2024-04-12T13:09:03.835Z,35.15
2024-04-12T13:19:06.352Z,32.47
2024-04-12T13:29:08.761Z,31.16
2024-04-12T13:39:11.196Z,31.01
2024-04-12T13:49:13.462Z,30.27
2024-04-12T13:59:15.890Z,32.53
2024-04-12T14:09:21.919Z,32.54
2024-04-12T14:19:25.188Z,32.00
2024-04-12T14:29:27.457Z,31.85
2024-04-12T14:39:29.850Z,32.67
2024-04-12T14:49:33.663Z,32.52
2024-04-12T14:59:35.843Z,32.53
2024-04-12T15:09:38.071Z,32.56
2024-04-12T15:19:40.401Z,32.59
2024-04-12T15:29:49.279Z,34.11
2024-04-12T15:39:51.823Z,33.76
2024-04-12T15:49:54.016Z,33.97
2024-04-12T15:59:56.682Z,34.82
2024-04-12T16:09:59.156Z,34.71
2024-04-12T16:20:01.702Z,36.34
2024-04-12T16:30:04.908Z,37.31
2024-04-12T16:40:07.350Z,37.33
2024-04-12T16:50:09.613Z,38.19
2024-04-12T17:00:11.906Z,38.54
2024-04-12T17:10:15.673Z,39.77
2024-04-12T17:20:19.234Z,43.15
2024-04-12T17:30:23.414Z,44.13
2024-04-12T17:40:25.724Z,44.67
2024-04-12T17:50:28.099Z,45.19
2024-04-12T18:00:30.422Z,46.57
2024-04-12T18:10:36.793Z,49.08
2024-04-12T18:20:39.229Z,52.08
